sensor_id;sensor_type;location;lat;lon;timestamp;P1;durP1;ratioP1;P2;durP2;ratioP2
74241;SDS011;62599;49.146;10.426;2023-05-07T00:01:06;2.10;;;1.90;;
74241;SDS011;62599;49.146;10.426;2023-05-07T00:03:32;2.20;;;1.98;;
74241;SDS011;62599;49.146;10.426;2023-05-07T00:05:58;3.60;;;2.38;;
74241;SDS011;62599;49.146;10.426;2023-05-07T00:08:23;2.75;;;2.47;;
74241;SDS011;62599;49.146;10.426;2023-05-07T00:10:49;2.60;;;2.08;;
74241;SDS011;62599;49.146;10.426;2023-05-07T00:13:14;3.05;;;2.25;;
74241;SDS011;62599;49.146;10.426;2023-05-07T00:15:40;2.90;;;2.63;;
74241;SDS011;62599;49.146;10.426;2023-05-07T00:18:05;3.40;;;1.55;;
74241;SDS011;62599;49.146;10.426;2023-05-07T00:20:31;9.82;;;2.90;;
74241;SDS011;62599;49.146;10.426;2023-05-07T00:22:56;2.73;;;2.30;;
74241;SDS011;62599;49.146;10.426;2023-05-07T00:25:21;2.50;;;2.13;;
74241;SDS011;62599;49.146;10.426;2023-05-07T00:27:47;2.85;;;2.15;;
74241;SDS011;62599;49.146;10.426;2023-05-07T00:30:12;4.07;;;2.07;;
74241;SDS011;62599;49.146;10.426;2023-05-07T00:32:38;3.70;;;2.92;;
74241;SDS011;62599;49.146;10.426;2023-05-07T00:35:04;4.28;;;2.45;;
74241;SDS011;62599;49.146;10.426;2023-05-07T00:37:30;3.67;;;2.25;;
74241;SDS011;62599;49.146;10.426;2023-05-07T00:39:56;3.33;;;2.33;;
74241;SDS011;62599;49.146;10.426;2023-05-07T00:42:21;4.82;;;2.92;;
74241;SDS011;62599;49.146;10.426;2023-05-07T00:44:47;3.72;;;3.40;;
74241;SDS011;62599;49.146;10.426;2023-05-07T00:47:12;5.22;;;2.38;;
74241;SDS011;62599;49.146;10.426;2023-05-07T00:49:41;4.85;;;1.80;;
74241;SDS011;62599;49.146;10.426;2023-05-07T00:52:09;2.90;;;1.80;;
74241;SDS011;62599;49.146;10.426;2023-05-07T00:54:36;3.38;;;2.85;;
74241;SDS011;62599;49.146;10.426;2023-05-07T00:57:02;3.15;;;2.30;;
74241;SDS011;62599;49.146;10.426;2023-05-07T00:59:29;2.83;;;1.80;;
74241;SDS011;62599;49.146;10.426;2023-05-07T01:01:56;4.05;;;2.40;;
74241;SDS011;62599;49.146;10.426;2023-05-07T01:04:21;3.05;;;1.98;;
74241;SDS011;62599;49.146;10.426;2023-05-07T01:06:47;9.90;;;2.43;;
74241;SDS011;62599;49.146;10.426;2023-05-07T01:09:12;2.83;;;2.53;;
74241;SDS011;62599;49.146;10.426;2023-05-07T01:11:38;4.47;;;2.78;;
74241;SDS011;62599;49.146;10.426;2023-05-07T01:14:04;4.28;;;2.15;;
74241;SDS011;62599;49.146;10.426;2023-05-07T01:16:31;3.13;;;2.15;;
74241;SDS011;62599;49.146;10.426;2023-05-07T01:19:00;3.63;;;2.85;;
74241;SDS011;62599;49.146;10.426;2023-05-07T01:21:26;6.45;;;3.08;;
74241;SDS011;62599;49.146;10.426;2023-05-07T01:23:52;4.63;;;3.75;;
74241;SDS011;62599;49.146;10.426;2023-05-07T01:26:20;9.85;;;6.82;;
74241;SDS011;62599;49.146;10.426;2023-05-07T01:28:47;10.02;;;7.45;;
74241;SDS011;62599;49.146;10.426;2023-05-07T01:31:12;7.70;;;4.90;;
74241;SDS011;62599;49.146;10.426;2023-05-07T01:33:39;4.00;;;3.60;;
74241;SDS011;62599;49.146;10.426;2023-05-07T01:36:06;2.97;;;2.67;;
74241;SDS011;62599;49.146;10.426;2023-05-07T01:38:33;3.25;;;2.28;;
74241;SDS011;62599;49.146;10.426;2023-05-07T01:41:01;3.75;;;3.40;;
74241;SDS011;62599;49.146;10.426;2023-05-07T01:43:27;3.45;;;2.50;;
74241;SDS011;62599;49.146;10.426;2023-05-07T01:45:54;4.85;;;4.05;;
74241;SDS011;62599;49.146;10.426;2023-05-07T01:48:20;3.30;;;2.97;;
74241;SDS011;62599;49.146;10.426;2023-05-07T01:50:46;3.40;;;2.83;;
74241;SDS011;62599;49.146;10.426;2023-05-07T01:53:12;3.08;;;2.85;;
74241;SDS011;62599;49.146;10.426;2023-05-07T01:55:37;2.73;;;2.43;;
74241;SDS011;62599;49.146;10.426;2023-05-07T01:58:03;2.95;;;2.28;;
74241;SDS011;62599;49.146;10.426;2023-05-07T02:00:29;4.55;;;3.30;;
74241;SDS011;62599;49.146;10.426;2023-05-07T02:02:54;3.05;;;2.45;;
74241;SDS011;62599;49.146;10.426;2023-05-07T02:05:20;21.23;;;10.65;;
74241;SDS011;62599;49.146;10.426;2023-05-07T02:07:46;24.17;;;14.52;;
74241;SDS011;62599;49.146;10.426;2023-05-07T02:10:11;13.55;;;8.65;;
74241;SDS011;62599;49.146;10.426;2023-05-07T02:12:37;4.30;;;2.77;;
74241;SDS011;62599;49.146;10.426;2023-05-07T02:15:02;2.50;;;2.30;;
74241;SDS011;62599;49.146;10.426;2023-05-07T02:17:28;3.10;;;2.10;;
74241;SDS011;62599;49.146;10.426;2023-05-07T02:19:56;3.42;;;2.45;;
74241;SDS011;62599;49.146;10.426;2023-05-07T02:22:22;2.95;;;2.28;;
74241;SDS011;62599;49.146;10.426;2023-05-07T02:24:47;3.30;;;2.70;;
74241;SDS011;62599;49.146;10.426;2023-05-07T02:27:13;2.75;;;2.00;;
74241;SDS011;62599;49.146;10.426;2023-05-07T02:29:38;3.20;;;2.38;;
74241;SDS011;62599;49.146;10.426;2023-05-07T02:32:04;3.72;;;2.25;;
74241;SDS011;62599;49.146;10.426;2023-05-07T02:34:29;3.03;;;2.65;;
74241;SDS011;62599;49.146;10.426;2023-05-07T02:36:55;2.83;;;2.20;;
74241;SDS011;62599;49.146;10.426;2023-05-07T02:39:20;3.95;;;2.47;;
74241;SDS011;62599;49.146;10.426;2023-05-07T02:41:46;3.25;;;2.70;;
74241;SDS011;62599;49.146;10.426;2023-05-07T02:44:11;2.43;;;1.90;;
74241;SDS011;62599;49.146;10.426;2023-05-07T02:46:37;4.35;;;2.78;;
74241;SDS011;62599;49.146;10.426;2023-05-07T02:49:02;3.67;;;2.43;;
74241;SDS011;62599;49.146;10.426;2023-05-07T02:51:27;2.80;;;2.20;;
74241;SDS011;62599;49.146;10.426;2023-05-07T02:53:53;4.05;;;3.03;;
74241;SDS011;62599;49.146;10.426;2023-05-07T02:56:18;3.60;;;3.30;;
74241;SDS011;62599;49.146;10.426;2023-05-07T02:58:43;3.27;;;2.73;;
74241;SDS011;62599;49.146;10.426;2023-05-07T03:01:09;3.92;;;2.95;;
74241;SDS011;62599;49.146;10.426;2023-05-07T03:03:34;6.70;;;3.90;;
74241;SDS011;62599;49.146;10.426;2023-05-07T03:06:00;13.32;;;7.70;;
74241;SDS011;62599;49.146;10.426;2023-05-07T03:08:26;17.13;;;8.25;;
74241;SDS011;62599;49.146;10.426;2023-05-07T03:10:51;11.00;;;5.97;;
74241;SDS011;62599;49.146;10.426;2023-05-07T03:13:17;6.03;;;4.45;;
74241;SDS011;62599;49.146;10.426;2023-05-07T03:15:42;10.40;;;4.25;;
74241;SDS011;62599;49.146;10.426;2023-05-07T03:18:08;3.55;;;2.95;;
74241;SDS011;62599;49.146;10.426;2023-05-07T03:20:33;5.15;;;3.95;;
74241;SDS011;62599;49.146;10.426;2023-05-07T03:22:59;6.15;;;3.65;;
74241;SDS011;62599;49.146;10.426;2023-05-07T03:25:25;4.88;;;2.58;;
74241;SDS011;62599;49.146;10.426;2023-05-07T03:27:50;5.07;;;3.28;;
74241;SDS011;62599;49.146;10.426;2023-05-07T03:30:16;4.72;;;3.25;;
74241;SDS011;62599;49.146;10.426;2023-05-07T03:32:42;4.55;;;3.42;;
74241;SDS011;62599;49.146;10.426;2023-05-07T03:35:08;4.78;;;3.30;;
74241;SDS011;62599;49.146;10.426;2023-05-07T03:37:33;5.78;;;3.58;;
74241;SDS011;62599;49.146;10.426;2023-05-07T03:39:58;5.77;;;3.70;;
74241;SDS011;62599;49.146;10.426;2023-05-07T03:42:24;7.38;;;4.28;;
74241;SDS011;62599;49.146;10.426;2023-05-07T03:44:49;8.18;;;4.93;;
74241;SDS011;62599;49.146;10.426;2023-05-07T03:47:15;6.77;;;4.30;;
74241;SDS011;62599;49.146;10.426;2023-05-07T03:49:40;6.57;;;3.30;;
74241;SDS011;62599;49.146;10.426;2023-05-07T03:52:06;7.93;;;4.18;;
74241;SDS011;62599;49.146;10.426;2023-05-07T03:54:31;7.93;;;3.40;;
74241;SDS011;62599;49.146;10.426;2023-05-07T03:56:57;4.93;;;3.40;;
74241;SDS011;62599;49.146;10.426;2023-05-07T03:59:22;5.25;;;3.42;;
74241;SDS011;62599;49.146;10.426;2023-05-07T04:01:48;4.20;;;3.53;;
74241;SDS011;62599;49.146;10.426;2023-05-07T04:04:16;3.85;;;3.30;;
74241;SDS011;62599;49.146;10.426;2023-05-07T04:06:41;4.22;;;3.40;;
74241;SDS011;62599;49.146;10.426;2023-05-07T04:09:07;3.27;;;2.80;;
74241;SDS011;62599;49.146;10.426;2023-05-07T04:11:33;5.22;;;3.40;;
74241;SDS011;62599;49.146;10.426;2023-05-07T04:13:58;5.30;;;3.53;;
74241;SDS011;62599;49.146;10.426;2023-05-07T04:16:23;5.63;;;3.53;;
74241;SDS011;62599;49.146;10.426;2023-05-07T04:18:49;5.55;;;4.18;;
74241;SDS011;62599;49.146;10.426;2023-05-07T04:21:18;5.18;;;3.67;;
74241;SDS011;62599;49.146;10.426;2023-05-07T04:23:45;4.60;;;3.50;;
74241;SDS011;62599;49.146;10.426;2023-05-07T04:26:11;9.73;;;4.05;;
74241;SDS011;62599;49.146;10.426;2023-05-07T04:28:37;4.00;;;3.47;;
74241;SDS011;62599;49.146;10.426;2023-05-07T04:31:04;3.20;;;2.53;;
74241;SDS011;62599;49.146;10.426;2023-05-07T04:33:29;5.80;;;2.83;;
74241;SDS011;62599;49.146;10.426;2023-05-07T04:35:55;4.40;;;2.77;;
74241;SDS011;62599;49.146;10.426;2023-05-07T04:38:20;4.70;;;3.00;;
74241;SDS011;62599;49.146;10.426;2023-05-07T04:40:46;3.92;;;2.80;;
74241;SDS011;62599;49.146;10.426;2023-05-07T04:43:11;5.05;;;2.47;;
74241;SDS011;62599;49.146;10.426;2023-05-07T04:45:38;2.55;;;2.25;;
74241;SDS011;62599;49.146;10.426;2023-05-07T04:48:06;4.65;;;2.60;;
74241;SDS011;62599;49.146;10.426;2023-05-07T04:50:31;4.05;;;3.58;;
74241;SDS011;62599;49.146;10.426;2023-05-07T04:52:57;7.63;;;3.28;;
74241;SDS011;62599;49.146;10.426;2023-05-07T04:55:22;3.78;;;2.92;;
74241;SDS011;62599;49.146;10.426;2023-05-07T04:57:48;3.10;;;2.80;;
74241;SDS011;62599;49.146;10.426;2023-05-07T05:00:13;6.10;;;2.92;;
74241;SDS011;62599;49.146;10.426;2023-05-07T05:02:39;4.07;;;3.08;;
74241;SDS011;62599;49.146;10.426;2023-05-07T05:05:06;6.18;;;3.38;;
74241;SDS011;62599;49.146;10.426;2023-05-07T05:07:32;5.97;;;3.80;;
74241;SDS011;62599;49.146;10.426;2023-05-07T05:09:57;5.40;;;3.50;;
74241;SDS011;62599;49.146;10.426;2023-05-07T05:12:23;4.43;;;3.10;;
74241;SDS011;62599;49.146;10.426;2023-05-07T05:14:48;4.65;;;3.35;;
74241;SDS011;62599;49.146;10.426;2023-05-07T05:17:14;3.88;;;3.08;;
74241;SDS011;62599;49.146;10.426;2023-05-07T05:19:39;3.25;;;2.95;;
74241;SDS011;62599;49.146;10.426;2023-05-07T05:22:07;3.80;;;3.03;;
74241;SDS011;62599;49.146;10.426;2023-05-07T05:24:33;4.75;;;3.20;;
74241;SDS011;62599;49.146;10.426;2023-05-07T05:26:58;4.47;;;3.10;;
74241;SDS011;62599;49.146;10.426;2023-05-07T05:29:26;4.50;;;2.65;;
74241;SDS011;62599;49.146;10.426;2023-05-07T05:31:51;4.57;;;3.63;;
74241;SDS011;62599;49.146;10.426;2023-05-07T05:34:17;4.50;;;3.35;;
74241;SDS011;62599;49.146;10.426;2023-05-07T05:36:44;5.47;;;3.03;;
74241;SDS011;62599;49.146;10.426;2023-05-07T05:39:10;5.15;;;3.20;;
74241;SDS011;62599;49.146;10.426;2023-05-07T05:41:35;5.72;;;3.47;;
74241;SDS011;62599;49.146;10.426;2023-05-07T05:44:01;2.63;;;2.35;;
74241;SDS011;62599;49.146;10.426;2023-05-07T05:46:26;4.53;;;3.03;;
74241;SDS011;62599;49.146;10.426;2023-05-07T05:48:51;5.23;;;3.90;;
74241;SDS011;62599;49.146;10.426;2023-05-07T05:51:23;5.13;;;3.80;;
74241;SDS011;62599;49.146;10.426;2023-05-07T05:53:48;3.78;;;3.28;;
74241;SDS011;62599;49.146;10.426;2023-05-07T05:56:15;8.00;;;3.30;;
74241;SDS011;62599;49.146;10.426;2023-05-07T05:58:40;3.47;;;3.17;;
74241;SDS011;62599;49.146;10.426;2023-05-07T06:01:06;3.58;;;3.00;;
74241;SDS011;62599;49.146;10.426;2023-05-07T06:03:31;3.10;;;2.80;;
74241;SDS011;62599;49.146;10.426;2023-05-07T06:05:57;7.07;;;3.03;;
74241;SDS011;62599;49.146;10.426;2023-05-07T06:08:23;4.50;;;3.25;;
74241;SDS011;62599;49.146;10.426;2023-05-07T06:10:48;3.42;;;2.65;;
74241;SDS011;62599;49.146;10.426;2023-05-07T06:13:13;3.17;;;2.35;;
74241;SDS011;62599;49.146;10.426;2023-05-07T06:15:39;3.87;;;2.90;;
74241;SDS011;62599;49.146;10.426;2023-05-07T06:18:04;5.97;;;3.60;;
74241;SDS011;62599;49.146;10.426;2023-05-07T06:20:30;2.63;;;2.42;;
74241;SDS011;62599;49.146;10.426;2023-05-07T06:22:55;5.00;;;3.00;;
74241;SDS011;62599;49.146;10.426;2023-05-07T06:25:20;4.00;;;2.80;;
74241;SDS011;62599;49.146;10.426;2023-05-07T06:27:46;4.97;;;3.33;;
74241;SDS011;62599;49.146;10.426;2023-05-07T06:30:11;3.80;;;2.90;;
74241;SDS011;62599;49.146;10.426;2023-05-07T06:32:37;3.42;;;2.45;;
74241;SDS011;62599;49.146;10.426;2023-05-07T06:35:05;4.88;;;3.45;;
74241;SDS011;62599;49.146;10.426;2023-05-07T06:37:34;7.18;;;2.83;;
74241;SDS011;62599;49.146;10.426;2023-05-07T06:40:05;3.33;;;2.78;;
74241;SDS011;62599;49.146;10.426;2023-05-07T06:42:31;3.22;;;2.55;;
74241;SDS011;62599;49.146;10.426;2023-05-07T06:44:57;2.65;;;2.15;;
74241;SDS011;62599;49.146;10.426;2023-05-07T06:47:22;3.07;;;2.73;;
74241;SDS011;62599;49.146;10.426;2023-05-07T06:49:48;3.30;;;2.13;;
74241;SDS011;62599;49.146;10.426;2023-05-07T06:52:13;4.10;;;2.63;;
74241;SDS011;62599;49.146;10.426;2023-05-07T06:54:38;10.17;;;3.13;;
74241;SDS011;62599;49.146;10.426;2023-05-07T06:57:04;5.10;;;3.47;;
74241;SDS011;62599;49.146;10.426;2023-05-07T06:59:29;6.70;;;3.43;;
74241;SDS011;62599;49.146;10.426;2023-05-07T07:01:54;3.65;;;2.80;;
74241;SDS011;62599;49.146;10.426;2023-05-07T07:04:20;4.50;;;2.92;;
74241;SDS011;62599;49.146;10.426;2023-05-07T07:06:47;4.35;;;3.20;;
74241;SDS011;62599;49.146;10.426;2023-05-07T07:09:13;3.70;;;2.95;;
74241;SDS011;62599;49.146;10.426;2023-05-07T07:11:38;4.68;;;3.22;;
74241;SDS011;62599;49.146;10.426;2023-05-07T07:14:04;6.97;;;2.85;;
74241;SDS011;62599;49.146;10.426;2023-05-07T07:16:30;5.40;;;3.30;;
74241;SDS011;62599;49.146;10.426;2023-05-07T07:18:56;3.45;;;3.08;;
74241;SDS011;62599;49.146;10.426;2023-05-07T07:21:21;3.53;;;3.22;;
74241;SDS011;62599;49.146;10.426;2023-05-07T07:23:46;3.87;;;2.37;;
74241;SDS011;62599;49.146;10.426;2023-05-07T07:26:12;5.40;;;2.85;;
74241;SDS011;62599;49.146;10.426;2023-05-07T07:28:46;6.50;;;2.23;;
74241;SDS011;62599;49.146;10.426;2023-05-07T07:31:12;3.90;;;2.90;;
74241;SDS011;62599;49.146;10.426;2023-05-07T07:33:38;3.13;;;1.92;;
74241;SDS011;62599;49.146;10.426;2023-05-07T07:36:05;3.58;;;1.63;;
74241;SDS011;62599;49.146;10.426;2023-05-07T07:38:31;2.88;;;1.80;;
74241;SDS011;62599;49.146;10.426;2023-05-07T07:40:57;5.88;;;2.80;;
74241;SDS011;62599;49.146;10.426;2023-05-07T07:43:22;3.00;;;1.80;;
74241;SDS011;62599;49.146;10.426;2023-05-07T07:45:50;5.57;;;3.27;;
74241;SDS011;62599;49.146;10.426;2023-05-07T07:48:18;3.88;;;2.70;;
74241;SDS011;62599;49.146;10.426;2023-05-07T07:50:43;3.13;;;1.83;;
74241;SDS011;62599;49.146;10.426;2023-05-07T07:53:09;9.73;;;2.30;;
74241;SDS011;62599;49.146;10.426;2023-05-07T07:55:37;3.63;;;2.27;;
74241;SDS011;62599;49.146;10.426;2023-05-07T07:58:04;3.10;;;2.72;;
74241;SDS011;62599;49.146;10.426;2023-05-07T08:00:29;3.45;;;2.28;;
74241;SDS011;62599;49.146;10.426;2023-05-07T08:02:55;3.55;;;2.05;;
74241;SDS011;62599;49.146;10.426;2023-05-07T08:05:20;4.03;;;2.97;;
74241;SDS011;62599;49.146;10.426;2023-05-07T08:07:46;3.20;;;2.30;;
74241;SDS011;62599;49.146;10.426;2023-05-07T08:10:16;3.88;;;2.53;;
74241;SDS011;62599;49.146;10.426;2023-05-07T08:12:46;2.97;;;2.28;;
74241;SDS011;62599;49.146;10.426;2023-05-07T08:15:15;2.95;;;1.83;;
74241;SDS011;62599;49.146;10.426;2023-05-07T08:17:41;2.83;;;1.90;;
74241;SDS011;62599;49.146;10.426;2023-05-07T08:20:07;3.80;;;3.45;;
74241;SDS011;62599;49.146;10.426;2023-05-07T08:22:36;2.78;;;2.25;;
74241;SDS011;62599;49.146;10.426;2023-05-07T08:25:02;3.63;;;1.75;;
74241;SDS011;62599;49.146;10.426;2023-05-07T08:27:27;2.42;;;2.10;;
74241;SDS011;62599;49.146;10.426;2023-05-07T08:29:53;8.33;;;2.20;;
74241;SDS011;62599;49.146;10.426;2023-05-07T08:32:18;3.90;;;2.05;;
74241;SDS011;62599;49.146;10.426;2023-05-07T08:34:44;3.20;;;2.33;;
74241;SDS011;62599;49.146;10.426;2023-05-07T08:37:09;2.83;;;1.85;;
74241;SDS011;62599;49.146;10.426;2023-05-07T08:39:38;3.03;;;1.80;;
74241;SDS011;62599;49.146;10.426;2023-05-07T08:42:03;3.05;;;2.20;;
74241;SDS011;62599;49.146;10.426;2023-05-07T08:44:36;3.38;;;3.08;;
74241;SDS011;62599;49.146;10.426;2023-05-07T08:47:10;5.47;;;2.90;;
74241;SDS011;62599;49.146;10.426;2023-05-07T08:49:39;4.07;;;3.03;;
74241;SDS011;62599;49.146;10.426;2023-05-07T08:52:05;2.25;;;1.95;;
74241;SDS011;62599;49.146;10.426;2023-05-07T08:54:31;4.32;;;2.72;;
74241;SDS011;62599;49.146;10.426;2023-05-07T08:56:57;2.97;;;2.00;;
74241;SDS011;62599;49.146;10.426;2023-05-07T08:59:22;5.15;;;3.08;;
74241;SDS011;62599;49.146;10.426;2023-05-07T09:01:48;7.35;;;2.58;;
74241;SDS011;62599;49.146;10.426;2023-05-07T09:04:13;3.83;;;2.75;;
74241;SDS011;62599;49.146;10.426;2023-05-07T09:06:39;4.05;;;2.13;;
74241;SDS011;62599;49.146;10.426;2023-05-07T09:09:07;2.63;;;1.90;;
74241;SDS011;62599;49.146;10.426;2023-05-07T09:11:33;2.75;;;2.25;;
74241;SDS011;62599;49.146;10.426;2023-05-07T09:13:58;2.17;;;1.95;;
74241;SDS011;62599;49.146;10.426;2023-05-07T09:16:26;3.40;;;2.35;;
74241;SDS011;62599;49.146;10.426;2023-05-07T09:18:53;2.72;;;2.03;;
74241;SDS011;62599;49.146;10.426;2023-05-07T09:21:20;1.83;;;1.63;;
74241;SDS011;62599;49.146;10.426;2023-05-07T09:23:48;4.35;;;1.95;;
74241;SDS011;62599;49.146;10.426;2023-05-07T09:26:15;2.78;;;1.85;;
74241;SDS011;62599;49.146;10.426;2023-05-07T09:28:41;2.45;;;1.80;;
74241;SDS011;62599;49.146;10.426;2023-05-07T09:31:07;3.60;;;2.25;;
74241;SDS011;62599;49.146;10.426;2023-05-07T09:33:36;8.57;;;2.13;;
74241;SDS011;62599;49.146;10.426;2023-05-07T09:36:03;3.15;;;2.47;;
74241;SDS011;62599;49.146;10.426;2023-05-07T09:38:30;3.08;;;2.28;;
74241;SDS011;62599;49.146;10.426;2023-05-07T09:41:02;5.13;;;3.05;;
74241;SDS011;62599;49.146;10.426;2023-05-07T09:43:31;5.45;;;2.42;;
74241;SDS011;62599;49.146;10.426;2023-05-07T09:45:58;1.83;;;1.13;;
74241;SDS011;62599;49.146;10.426;2023-05-07T09:48:24;2.78;;;2.55;;
74241;SDS011;62599;49.146;10.426;2023-05-07T09:50:51;2.90;;;2.10;;
74241;SDS011;62599;49.146;10.426;2023-05-07T09:53:29;2.50;;;1.55;;
74241;SDS011;62599;49.146;10.426;2023-05-07T09:56:17;3.25;;;2.33;;
74241;SDS011;62599;49.146;10.426;2023-05-07T09:59:10;2.97;;;2.45;;
74241;SDS011;62599;49.146;10.426;2023-05-07T10:02:17;3.20;;;1.30;;
74241;SDS011;62599;49.146;10.426;2023-05-07T10:10:32;4.30;;;1.65;;
74241;SDS011;62599;49.146;10.426;2023-05-07T10:12:59;1.58;;;1.27;;
74241;SDS011;62599;49.146;10.426;2023-05-07T10:15:26;2.28;;;1.52;;
74241;SDS011;62599;49.146;10.426;2023-05-07T10:17:54;1.92;;;1.50;;
74241;SDS011;62599;49.146;10.426;2023-05-07T10:20:23;2.70;;;1.45;;
74241;SDS011;62599;49.146;10.426;2023-05-07T10:22:51;1.77;;;1.17;;
74241;SDS011;62599;49.146;10.426;2023-05-07T10:25:28;1.70;;;1.60;;
74241;SDS011;62599;49.146;10.426;2023-05-07T10:27:56;2.60;;;1.35;;
74241;SDS011;62599;49.146;10.426;2023-05-07T10:30:49;1.42;;;1.15;;
74241;SDS011;62599;49.146;10.426;2023-05-07T10:33:29;1.98;;;1.40;;
74241;SDS011;62599;49.146;10.426;2023-05-07T10:35:59;1.70;;;1.58;;
74241;SDS011;62599;49.146;10.426;2023-05-07T10:40:52;2.72;;;2.08;;
74241;SDS011;62599;49.146;10.426;2023-05-07T10:43:18;2.38;;;1.75;;
74241;SDS011;62599;49.146;10.426;2023-05-07T10:45:43;4.20;;;2.08;;
74241;SDS011;62599;49.146;10.426;2023-05-07T10:48:12;2.08;;;1.55;;
74241;SDS011;62599;49.146;10.426;2023-05-07T10:50:42;1.70;;;1.48;;
74241;SDS011;62599;49.146;10.426;2023-05-07T10:55:43;3.90;;;1.98;;
74241;SDS011;62599;49.146;10.426;2023-05-07T10:58:22;1.80;;;1.70;;
74241;SDS011;62599;49.146;10.426;2023-05-07T11:00:58;2.58;;;2.33;;
74241;SDS011;62599;49.146;10.426;2023-05-07T11:03:25;3.15;;;2.00;;
74241;SDS011;62599;49.146;10.426;2023-05-07T11:11:16;1.98;;;1.58;;
74241;SDS011;62599;49.146;10.426;2023-05-07T11:18:49;2.10;;;1.85;;
74241;SDS011;62599;49.146;10.426;2023-05-07T11:23:57;4.03;;;2.53;;
74241;SDS011;62599;49.146;10.426;2023-05-07T11:26:24;3.03;;;1.92;;
74241;SDS011;62599;49.146;10.426;2023-05-07T11:28:50;2.13;;;2.03;;
74241;SDS011;62599;49.146;10.426;2023-05-07T11:31:20;1.98;;;1.73;;
74241;SDS011;62599;49.146;10.426;2023-05-07T11:33:47;2.65;;;2.10;;
74241;SDS011;62599;49.146;10.426;2023-05-07T11:36:13;3.78;;;2.70;;
74241;SDS011;62599;49.146;10.426;2023-05-07T11:38:38;3.30;;;1.63;;
74241;SDS011;62599;49.146;10.426;2023-05-07T11:41:04;3.15;;;2.05;;
74241;SDS011;62599;49.146;10.426;2023-05-07T11:43:30;1.95;;;1.63;;
74241;SDS011;62599;49.146;10.426;2023-05-07T11:46:10;2.10;;;1.88;;
74241;SDS011;62599;49.146;10.426;2023-05-07T11:48:37;2.35;;;1.30;;
74241;SDS011;62599;49.146;10.426;2023-05-07T11:51:04;2.33;;;1.33;;
74241;SDS011;62599;49.146;10.426;2023-05-07T11:53:41;1.73;;;1.63;;
74241;SDS011;62599;49.146;10.426;2023-05-07T11:58:33;3.13;;;1.80;;
74241;SDS011;62599;49.146;10.426;2023-05-07T12:00:58;2.50;;;1.48;;
74241;SDS011;62599;49.146;10.426;2023-05-07T12:03:24;1.93;;;1.73;;
74241;SDS011;62599;49.146;10.426;2023-05-07T12:05:49;1.27;;;1.00;;
74241;SDS011;62599;49.146;10.426;2023-05-07T12:08:18;1.83;;;1.00;;
74241;SDS011;62599;49.146;10.426;2023-05-07T12:10:47;2.53;;;1.88;;
74241;SDS011;62599;49.146;10.426;2023-05-07T12:13:24;2.30;;;2.10;;
74241;SDS011;62599;49.146;10.426;2023-05-07T12:15:51;2.03;;;1.70;;
74241;SDS011;62599;49.146;10.426;2023-05-07T12:18:17;2.22;;;1.48;;
74241;SDS011;62599;49.146;10.426;2023-05-07T12:20:43;1.50;;;1.33;;
74241;SDS011;62599;49.146;10.426;2023-05-07T12:23:08;2.38;;;1.63;;
74241;SDS011;62599;49.146;10.426;2023-05-07T12:25:35;3.28;;;1.55;;
74241;SDS011;62599;49.146;10.426;2023-05-07T12:28:01;3.05;;;1.92;;
74241;SDS011;62599;49.146;10.426;2023-05-07T12:30:29;1.95;;;1.77;;
74241;SDS011;62599;49.146;10.426;2023-05-07T12:33:05;1.30;;;1.20;;
74241;SDS011;62599;49.146;10.426;2023-05-07T12:35:31;1.30;;;1.10;;
74241;SDS011;62599;49.146;10.426;2023-05-07T12:38:01;2.70;;;1.73;;
74241;SDS011;62599;49.146;10.426;2023-05-07T12:40:39;3.22;;;1.98;;
74241;SDS011;62599;49.146;10.426;2023-05-07T12:43:07;2.75;;;1.73;;
74241;SDS011;62599;49.146;10.426;2023-05-07T12:45:38;2.15;;;1.83;;
74241;SDS011;62599;49.146;10.426;2023-05-07T12:48:06;3.78;;;2.13;;
74241;SDS011;62599;49.146;10.426;2023-05-07T12:50:32;2.15;;;1.25;;
74241;SDS011;62599;49.146;10.426;2023-05-07T12:52:58;2.53;;;1.63;;
74241;SDS011;62599;49.146;10.426;2023-05-07T12:55:24;2.08;;;1.50;;
74241;SDS011;62599;49.146;10.426;2023-05-07T12:57:49;1.52;;;1.35;;
74241;SDS011;62599;49.146;10.426;2023-05-07T13:00:16;2.20;;;2.00;;
74241;SDS011;62599;49.146;10.426;2023-05-07T13:02:42;1.35;;;1.25;;
74241;SDS011;62599;49.146;10.426;2023-05-07T13:05:11;2.60;;;1.33;;
74241;SDS011;62599;49.146;10.426;2023-05-07T13:07:37;3.33;;;1.60;;
74241;SDS011;62599;49.146;10.426;2023-05-07T13:10:03;2.00;;;1.52;;
74241;SDS011;62599;49.146;10.426;2023-05-07T13:12:29;2.38;;;1.65;;
74241;SDS011;62599;49.146;10.426;2023-05-07T13:14:54;2.78;;;1.48;;
74241;SDS011;62599;49.146;10.426;2023-05-07T13:17:20;2.00;;;1.23;;
74241;SDS011;62599;49.146;10.426;2023-05-07T13:19:45;1.77;;;1.23;;
74241;SDS011;62599;49.146;10.426;2023-05-07T13:22:10;1.57;;;1.10;;
74241;SDS011;62599;49.146;10.426;2023-05-07T13:24:36;1.25;;;1.13;;
74241;SDS011;62599;49.146;10.426;2023-05-07T13:27:01;1.73;;;1.55;;
74241;SDS011;62599;49.146;10.426;2023-05-07T13:29:27;3.00;;;1.77;;
74241;SDS011;62599;49.146;10.426;2023-05-07T13:31:57;1.85;;;1.55;;
74241;SDS011;62599;49.146;10.426;2023-05-07T13:34:22;1.67;;;1.48;;
74241;SDS011;62599;49.146;10.426;2023-05-07T13:36:47;1.60;;;1.40;;
74241;SDS011;62599;49.146;10.426;2023-05-07T13:39:13;5.78;;;1.48;;
74241;SDS011;62599;49.146;10.426;2023-05-07T13:41:39;1.40;;;1.13;;
74241;SDS011;62599;49.146;10.426;2023-05-07T13:44:04;3.03;;;1.45;;
74241;SDS011;62599;49.146;10.426;2023-05-07T13:46:29;2.93;;;2.73;;
74241;SDS011;62599;49.146;10.426;2023-05-07T13:48:55;2.38;;;1.35;;
74241;SDS011;62599;49.146;10.426;2023-05-07T13:51:21;1.90;;;1.17;;
74241;SDS011;62599;49.146;10.426;2023-05-07T13:53:46;1.85;;;1.27;;
74241;SDS011;62599;49.146;10.426;2023-05-07T13:56:12;1.83;;;1.70;;
74241;SDS011;62599;49.146;10.426;2023-05-07T13:58:39;1.63;;;1.52;;
74241;SDS011;62599;49.146;10.426;2023-05-07T14:01:04;2.13;;;1.52;;
74241;SDS011;62599;49.146;10.426;2023-05-07T14:03:30;2.40;;;2.20;;
74241;SDS011;62599;49.146;10.426;2023-05-07T14:05:56;4.32;;;1.52;;
74241;SDS011;62599;49.146;10.426;2023-05-07T14:08:22;2.60;;;1.52;;
74241;SDS011;62599;49.146;10.426;2023-05-07T14:10:48;1.88;;;1.55;;
74241;SDS011;62599;49.146;10.426;2023-05-07T14:13:13;2.63;;;2.43;;
74241;SDS011;62599;49.146;10.426;2023-05-07T14:15:39;2.33;;;1.35;;
74241;SDS011;62599;49.146;10.426;2023-05-07T14:18:05;1.38;;;1.27;;
74241;SDS011;62599;49.146;10.426;2023-05-07T14:20:30;1.50;;;1.40;;
74241;SDS011;62599;49.146;10.426;2023-05-07T14:23:01;1.67;;;1.27;;
74241;SDS011;62599;49.146;10.426;2023-05-07T14:25:26;2.13;;;1.47;;
74241;SDS011;62599;49.146;10.426;2023-05-07T14:27:52;3.33;;;1.73;;
74241;SDS011;62599;49.146;10.426;2023-05-07T14:30:17;1.90;;;1.58;;
74241;SDS011;62599;49.146;10.426;2023-05-07T14:32:42;1.43;;;1.20;;
74241;SDS011;62599;49.146;10.426;2023-05-07T14:35:08;1.27;;;1.17;;
74241;SDS011;62599;49.146;10.426;2023-05-07T14:37:33;1.20;;;1.10;;
74241;SDS011;62599;49.146;10.426;2023-05-07T14:39:58;1.83;;;1.23;;
74241;SDS011;62599;49.146;10.426;2023-05-07T14:42:24;1.40;;;1.30;;
74241;SDS011;62599;49.146;10.426;2023-05-07T14:44:49;1.53;;;1.43;;
74241;SDS011;62599;49.146;10.426;2023-05-07T14:47:15;2.85;;;1.85;;
74241;SDS011;62599;49.146;10.426;2023-05-07T14:49:40;2.03;;;1.33;;
74241;SDS011;62599;49.146;10.426;2023-05-07T14:52:06;3.45;;;1.65;;
74241;SDS011;62599;49.146;10.426;2023-05-07T14:54:34;1.38;;;1.27;;
74241;SDS011;62599;49.146;10.426;2023-05-07T14:57:02;1.55;;;1.40;;